Time;durP1;ratioP1;P1;durP2;ratioP2;P2;SDS_P1;SDS_P2;PMS_P1;PMS_P2;Temp;Humidity;BMP_temperature;BMP_pressure;BME280_temperature;BME280_humidity;BME280_pressure;Samples;Min_cycle;Max_cycle;Signal;HPM_P1;HPM_P2
2021/04/22 00:00:36;;;;;;;5.40;1.55;;;;;;;;;;5004140;28;20043;-61
2021/04/22 00:03:02;;;;;;;4.80;1.25;;;;;;;;;;5004436;28;20035;-60
2021/04/22 00:05:36;;;;;;;3.40;1.30;;;;;;;;;;5003714;28;20113;-61
2021/04/22 00:08:02;;;;;;;5.25;1.75;;;;;;;;;;5020053;28;20121;-61
2021/04/22 00:10:47;;;;;;;4.90;1.13;;;;;;;;;;5004803;28;20046;-60
2021/04/22 00:13:13;;;;;;;6.05;1.58;;;;;;;;;;5003237;28;20806;-60
2021/04/22 00:15:39;;;;;;;4.05;1.50;;;;;;;;;;5003453;28;20168;-60
2021/04/22 00:18:05;;;;;;;4.40;1.67;;;;;;;;;;5001082;28;20548;-60
2021/04/22 00:20:31;;;;;;;4.57;1.40;;;;;;;;;;5003054;28;20035;-61
2021/04/22 00:22:56;;;;;;;5.55;1.60;;;;;;;;;;5003750;28;20532;-60
2021/04/22 00:25:22;;;;;;;6.57;1.58;;;;;;;;;;5000771;28;20055;-60
2021/04/22 00:27:47;;;;;;;6.40;1.58;;;;;;;;;;5003552;28;20114;-61
2021/04/22 00:30:14;;;;;;;3.90;1.38;;;;;;;;;;5004052;28;20049;-61
2021/04/22 00:32:40;;;;;;;6.15;1.63;;;;;;;;;;5003115;28;20030;-59
2021/04/22 00:35:07;;;;;;;4.50;1.35;;;;;;;;;;5004309;28;20102;-61
2021/04/22 00:37:32;;;;;;;4.88;1.30;;;;;;;;;;5002717;28;20030;-60
2021/04/22 00:39:57;;;;;;;5.22;1.63;;;;;;;;;;5002351;28;20385;-61
2021/04/22 00:42:23;;;;;;;6.63;1.75;;;;;;;;;;5004592;28;20073;-61
2021/04/22 00:44:48;;;;;;;5.15;1.55;;;;;;;;;;5003061;28;20035;-61
2021/04/22 00:47:14;;;;;;;3.85;1.35;;;;;;;;;;5001735;28;24096;-66
2021/04/22 00:49:41;;;;;;;4.28;1.33;;;;;;;;;;5003577;28;20113;-60
2021/04/22 00:52:06;;;;;;;4.70;1.40;;;;;;;;;;5004470;28;20022;-60
2021/04/22 00:54:32;;;;;;;3.78;1.23;;;;;;;;;;5002537;28;20045;-60
2021/04/22 00:56:58;;;;;;;5.25;1.30;;;;;;;;;;5002559;28;20137;-61
2021/04/22 00:59:24;;;;;;;3.92;1.40;;;;;;;;;;5002542;28;21452;-60
2021/04/22 01:01:49;;;;;;;4.57;1.30;;;;;;;;;;5003621;28;20049;-61
2021/04/22 01:04:14;;;;;;;4.72;1.50;;;;;;;;;;5005089;28;20396;-61
2021/04/22 01:06:40;;;;;;;3.55;1.10;;;;;;;;;;5005773;28;20100;-61
2021/04/22 01:09:06;;;;;;;4.75;1.50;;;;;;;;;;5004149;28;20114;-61
2021/04/22 01:11:31;;;;;;;4.10;1.50;;;;;;;;;;5007003;28;20043;-61
2021/04/22 01:13:57;;;;;;;5.03;1.40;;;;;;;;;;5006380;28;20097;-60
2021/04/22 01:16:23;;;;;;;4.40;1.40;;;;;;;;;;5004297;28;20034;-61
2021/04/22 01:18:48;;;;;;;6.35;1.60;;;;;;;;;;5005078;28;20030;-60
2021/04/22 01:21:20;;;;;;;3.35;1.33;;;;;;;;;;5022491;28;20034;-60
2021/04/22 01:23:45;;;;;;;4.65;1.40;;;;;;;;;;5006021;28;20026;-60
2021/04/22 01:26:11;;;;;;;7.35;1.80;;;;;;;;;;5007478;28;20934;-60
2021/04/22 01:28:36;;;;;;;5.55;1.40;;;;;;;;;;4974777;28;20038;-60
2021/04/22 01:31:01;;;;;;;4.38;1.65;;;;;;;;;;5006815;28;20089;-61
2021/04/22 01:33:27;;;;;;;5.28;1.45;;;;;;;;;;5022650;28;25323;-61
2021/04/22 01:35:55;;;;;;;4.82;1.52;;;;;;;;;;5006811;28;20448;-61
2021/04/22 01:38:21;;;;;;;5.15;1.48;;;;;;;;;;5006345;28;20477;-60
2021/04/22 01:40:46;;;;;;;5.20;1.40;;;;;;;;;;5006474;28;20030;-61
2021/04/22 01:43:12;;;;;;;3.10;1.17;;;;;;;;;;5005785;28;21800;-60
2021/04/22 01:45:37;;;;;;;5.38;1.55;;;;;;;;;;5004475;28;20137;-61
2021/04/22 01:48:04;;;;;;;4.68;1.30;;;;;;;;;;5006204;28;20045;-61
2021/04/22 01:50:30;;;;;;;6.25;1.55;;;;;;;;;;5004614;28;20508;-60
2021/04/22 01:52:57;;;;;;;3.95;1.42;;;;;;;;;;5005760;28;20097;-61
2021/04/22 01:55:50;;;;;;;3.22;1.38;;;;;;;;;;5004634;28;20142;-60
2021/04/22 01:58:20;;;;;;;5.63;1.55;;;;;;;;;;5006557;28;20050;-61
2021/04/22 02:00:51;;;;;;;5.35;1.55;;;;;;;;;;5004702;28;20046;-61
2021/04/22 02:03:17;;;;;;;4.70;1.50;;;;;;;;;;5008372;28;20901;-61
2021/04/22 02:05:42;;;;;;;4.25;1.50;;;;;;;;;;5021696;28;20049;-60
2021/04/22 02:08:08;;;;;;;6.07;1.77;;;;;;;;;;5003226;28;20544;-59
2021/04/22 02:10:35;;;;;;;3.17;1.25;;;;;;;;;;5006686;28;20035;-61
2021/04/22 02:13:00;;;;;;;4.53;1.30;;;;;;;;;;5006777;28;20117;-60
2021/04/22 02:15:27;;;;;;;5.55;1.50;;;;;;;;;;5003980;28;20038;-60
2021/04/22 02:17:53;;;;;;;4.90;1.70;;;;;;;;;;5005036;28;20827;-64
2021/04/22 02:20:18;;;;;;;6.35;1.75;;;;;;;;;;4988786;28;20077;-59
2021/04/22 02:22:44;;;;;;;5.47;1.60;;;;;;;;;;4971951;28;20544;-61
2021/04/22 02:25:11;;;;;;;4.43;1.52;;;;;;;;;;5004276;28;20080;-61
2021/04/22 02:27:36;;;;;;;5.03;1.55;;;;;;;;;;5005062;28;20082;-61
2021/04/22 02:30:09;;;;;;;3.75;1.35;;;;;;;;;;5006727;28;20405;-61
2021/04/22 02:32:34;;;;;;;4.57;1.35;;;;;;;;;;5000858;28;20096;-60
2021/04/22 02:35:00;;;;;;;5.15;1.80;;;;;;;;;;5004471;28;20408;-61
2021/04/22 02:37:25;;;;;;;4.57;1.60;;;;;;;;;;5005573;28;20039;-61
2021/04/22 02:39:51;;;;;;;6.10;1.90;;;;;;;;;;5004959;28;27908;-61
2021/04/22 02:42:16;;;;;;;5.38;1.65;;;;;;;;;;5006106;28;20116;-60
2021/04/22 02:44:42;;;;;;;4.57;1.50;;;;;;;;;;5005013;28;20048;-60
2021/04/22 02:47:07;;;;;;;4.35;1.40;;;;;;;;;;5002287;28;20035;-59
2021/04/22 02:49:33;;;;;;;5.10;1.63;;;;;;;;;;5004471;28;20900;-61
2021/04/22 02:51:58;;;;;;;5.75;1.73;;;;;;;;;;5006729;28;20485;-61
2021/04/22 02:54:24;;;;;;;5.60;1.55;;;;;;;;;;5005163;28;20045;-61
2021/04/22 02:56:49;;;;;;;5.10;1.63;;;;;;;;;;5005996;28;20368;-61
2021/04/22 02:59:14;;;;;;;5.28;1.80;;;;;;;;;;5005062;28;20523;-60
2021/04/22 03:01:40;;;;;;;4.18;1.52;;;;;;;;;;5004638;28;20813;-61
2021/04/22 03:04:06;;;;;;;5.03;1.40;;;;;;;;;;5005072;28;20041;-58
2021/04/22 03:06:31;;;;;;;6.00;1.42;;;;;;;;;;5005620;28;20504;-60
2021/04/22 03:08:57;;;;;;;4.35;1.60;;;;;;;;;;4988167;28;20044;-60
2021/04/22 03:11:22;;;;;;;6.13;1.98;;;;;;;;;;5006043;28;20451;-59
2021/04/22 03:13:47;;;;;;;4.65;1.63;;;;;;;;;;5004550;28;20027;-60
2021/04/22 03:16:13;;;;;;;4.82;1.40;;;;;;;;;;5002365;28;20039;-60
2021/04/22 03:18:38;;;;;;;4.63;1.58;;;;;;;;;;5004022;28;20042;-60
2021/04/22 03:21:04;;;;;;;4.60;1.70;;;;;;;;;;5004022;28;20027;-60
2021/04/22 03:23:29;;;;;;;4.18;1.50;;;;;;;;;;5004003;28;20117;-61
2021/04/22 03:25:55;;;;;;;4.80;1.63;;;;;;;;;;5004029;28;20100;-60
2021/04/22 03:28:20;;;;;;;4.85;1.48;;;;;;;;;;5005963;28;23113;-60
2021/04/22 03:30:46;;;;;;;5.55;1.83;;;;;;;;;;5005009;28;20060;-60
2021/04/22 03:33:11;;;;;;;5.32;1.65;;;;;;;;;;5004319;28;20038;-60
2021/04/22 03:35:37;;;;;;;5.53;1.50;;;;;;;;;;5018798;28;20575;-60
2021/04/22 03:38:02;;;;;;;5.85;1.42;;;;;;;;;;5004761;28;26173;-61
2021/04/22 03:40:28;;;;;;;6.03;2.03;;;;;;;;;;5005848;28;20117;-61
2021/04/22 03:42:54;;;;;;;4.60;1.60;;;;;;;;;;5005710;28;20481;-60
2021/04/22 03:45:20;;;;;;;5.95;1.67;;;;;;;;;;5003708;28;20127;-60
2021/04/22 03:47:45;;;;;;;5.15;1.60;;;;;;;;;;5004336;28;20026;-60
2021/04/22 03:50:12;;;;;;;3.72;1.33;;;;;;;;;;5004213;28;20695;-60
2021/04/22 03:52:38;;;;;;;4.82;2.10;;;;;;;;;;5004250;28;20072;-60
2021/04/22 03:55:04;;;;;;;5.75;1.73;;;;;;;;;;5002094;28;20050;-60
2021/04/22 03:57:30;;;;;;;4.00;1.58;;;;;;;;;;5003510;28;20039;-60
2021/04/22 03:59:55;;;;;;;4.38;1.73;;;;;;;;;;5004141;28;20030;-60
2021/04/22 04:02:21;;;;;;;5.65;1.75;;;;;;;;;;5001339;28;20452;-61
2021/04/22 04:04:46;;;;;;;5.28;1.80;;;;;;;;;;5004049;28;20451;-60
2021/04/22 04:07:12;;;;;;;5.68;2.05;;;;;;;;;;5003963;28;20046;-61
2021/04/22 04:09:37;;;;;;;4.07;1.38;;;;;;;;;;5005139;28;20040;-60
2021/04/22 04:12:04;;;;;;;3.58;1.60;;;;;;;;;;5003208;28;20069;-61
2021/04/22 04:14:30;;;;;;;4.55;1.70;;;;;;;;;;5004140;28;20026;-60
2021/04/22 04:16:55;;;;;;;5.10;1.73;;;;;;;;;;5004681;28;20904;-60
2021/04/22 04:19:21;;;;;;;4.85;1.88;;;;;;;;;;5003790;28;20041;-60
2021/04/22 04:21:46;;;;;;;4.47;1.60;;;;;;;;;;5004681;28;20034;-59
2021/04/22 04:24:12;;;;;;;4.97;1.83;;;;;;;;;;5003400;28;20432;-62
2021/04/22 04:26:37;;;;;;;6.60;2.00;;;;;;;;;;5002021;28;20046;-60
2021/04/22 04:29:03;;;;;;;4.53;2.05;;;;;;;;;;5003008;28;20136;-60
2021/04/22 04:31:28;;;;;;;4.32;1.80;;;;;;;;;;4959233;28;20041;-60
2021/04/22 04:33:55;;;;;;;4.38;1.65;;;;;;;;;;5018293;28;20549;-59
2021/04/22 04:36:21;;;;;;;5.40;1.40;;;;;;;;;;5002940;28;20031;-61
2021/04/22 04:38:46;;;;;;;5.32;1.60;;;;;;;;;;5002234;28;20121;-59
2021/04/22 04:41:12;;;;;;;3.70;1.60;;;;;;;;;;5004405;28;20030;-60
2021/04/22 04:43:39;;;;;;;3.60;1.58;;;;;;;;;;5004013;28;20030;-60
2021/04/22 04:46:05;;;;;;;4.43;1.70;;;;;;;;;;5004216;28;20065;-60
2021/04/22 04:48:30;;;;;;;5.88;1.98;;;;;;;;;;5004516;28;20934;-61
2021/04/22 04:50:55;;;;;;;5.40;1.83;;;;;;;;;;5018075;28;20242;-60
2021/04/22 04:53:21;;;;;;;5.65;1.80;;;;;;;;;;5002950;28;20092;-60
2021/04/22 04:55:46;;;;;;;6.00;1.98;;;;;;;;;;5003753;28;20030;-60
2021/04/22 04:58:12;;;;;;;4.75;1.45;;;;;;;;;;5002974;28;20251;-60
2021/04/22 05:00:37;;;;;;;5.68;1.40;;;;;;;;;;5003950;28;20031;-60
2021/04/22 05:03:03;;;;;;;5.32;1.90;;;;;;;;;;5002815;28;20038;-60
2021/04/22 05:05:28;;;;;;;5.05;2.00;;;;;;;;;;5003182;28;20051;-60
2021/04/22 05:07:54;;;;;;;4.80;1.90;;;;;;;;;;5002105;28;20034;-61
2021/04/22 05:10:19;;;;;;;3.45;1.40;;;;;;;;;;5002777;28;20485;-60
2021/04/22 05:12:45;;;;;;;5.35;1.85;;;;;;;;;;5002852;28;22414;-61
2021/04/22 05:15:11;;;;;;;6.07;1.80;;;;;;;;;;5001198;28;20360;-60
2021/04/22 05:17:36;;;;;;;4.88;1.67;;;;;;;;;;5002798;28;20512;-61
2021/04/22 05:20:04;;;;;;;5.07;1.90;;;;;;;;;;5001728;28;20042;-60
2021/04/22 05:22:29;;;;;;;4.78;1.55;;;;;;;;;;5003245;28;20031;-61
2021/04/22 05:24:55;;;;;;;5.75;1.65;;;;;;;;;;5002958;28;20034;-59
2021/04/22 05:27:20;;;;;;;5.13;1.65;;;;;;;;;;5002161;28;20165;-61
2021/04/22 05:29:46;;;;;;;6.03;1.80;;;;;;;;;;5002089;28;21076;-61
2021/04/22 05:32:12;;;;;;;3.95;1.48;;;;;;;;;;5001757;28;20112;-60
2021/04/22 05:34:38;;;;;;;5.85;1.80;;;;;;;;;;5002075;28;20113;-60
2021/04/22 05:37:03;;;;;;;9.65;3.70;;;;;;;;;;5003321;28;20567;-61
2021/04/22 05:39:29;;;;;;;6.30;1.98;;;;;;;;;;5001914;28;20039;-60
2021/04/22 05:41:56;;;;;;;3.28;1.70;;;;;;;;;;5001170;28;20394;-60
2021/04/22 05:44:21;;;;;;;4.85;1.85;;;;;;;;;;5003306;28;20093;-61
2021/04/22 05:46:47;;;;;;;5.05;2.10;;;;;;;;;;5002394;28;20173;-61
2021/04/22 05:49:12;;;;;;;6.00;2.20;;;;;;;;;;5004482;28;20038;-60
2021/04/22 05:51:39;;;;;;;3.45;1.48;;;;;;;;;;5006519;28;20030;-60
2021/04/22 05:54:05;;;;;;;3.72;1.52;;;;;;;;;;5005172;28;20041;-60
2021/04/22 05:56:31;;;;;;;6.63;1.80;;;;;;;;;;4988362;28;20873;-60
2021/04/22 05:58:56;;;;;;;5.55;2.10;;;;;;;;;;5005545;28;20042;-61
2021/04/22 06:01:22;;;;;;;4.43;1.70;;;;;;;;;;5005518;28;20034;-59
2021/04/22 06:03:47;;;;;;;5.20;1.73;;;;;;;;;;5004395;28;20054;-59
2021/04/22 06:06:13;;;;;;;4.07;1.75;;;;;;;;;;5006230;28;20042;-61
2021/04/22 06:08:38;;;;;;;5.13;1.60;;;;;;;;;;5005203;28;20026;-59
2021/04/22 06:11:04;;;;;;;4.28;1.38;;;;;;;;;;5006293;28;20670;-60
2021/04/22 06:13:29;;;;;;;5.13;1.67;;;;;;;;;;5005124;28;20038;-60
2021/04/22 06:15:55;;;;;;;6.10;1.80;;;;;;;;;;5005172;28;20038;-60
2021/04/22 06:18:20;;;;;;;5.28;1.70;;;;;;;;;;5004816;28;20030;-60
2021/04/22 06:20:46;;;;;;;4.88;1.58;;;;;;;;;;5004736;28;20046;-60
2021/04/22 06:23:11;;;;;;;6.25;1.60;;;;;;;;;;5004569;28;20034;-60
2021/04/22 06:25:37;;;;;;;4.40;1.70;;;;;;;;;;5003765;28;20038;-60
2021/04/22 06:28:02;;;;;;;5.13;1.80;;;;;;;;;;5004275;28;20034;-60
2021/04/22 06:30:28;;;;;;;4.05;1.52;;;;;;;;;;5004415;28;20066;-60
2021/04/22 06:32:54;;;;;;;5.75;1.70;;;;;;;;;;5003268;28;20077;-60
2021/04/22 06:35:19;;;;;;;4.65;1.50;;;;;;;;;;5004413;28;20126;-60
2021/04/22 06:37:44;;;;;;;5.38;1.70;;;;;;;;;;5006137;28;20039;-60
2021/04/22 06:40:16;;;;;;;4.07;1.50;;;;;;;;;;5004587;28;20456;-60
2021/04/22 06:42:41;;;;;;;5.55;1.60;;;;;;;;;;5004909;28;20038;-60
2021/04/22 06:45:08;;;;;;;4.97;1.83;;;;;;;;;;5005874;28;20035;-62
2021/04/22 06:47:33;;;;;;;6.03;1.80;;;;;;;;;;5005865;28;20026;-60
2021/04/22 06:49:59;;;;;;;2.65;1.20;;;;;;;;;;5003995;28;20042;-60
2021/04/22 06:52:24;;;;;;;5.53;1.70;;;;;;;;;;5005086;28;20125;-60
2021/04/22 06:54:50;;;;;;;5.95;1.70;;;;;;;;;;5005177;28;20524;-61
2021/04/22 06:57:15;;;;;;;4.35;1.42;;;;;;;;;;5005509;28;20481;-60
2021/04/22 06:59:41;;;;;;;3.38;1.70;;;;;;;;;;5005121;28;20041;-60
2021/04/22 07:02:10;;;;;;;6.28;2.20;;;;;;;;;;4989339;28;20034;-60
2021/04/22 07:04:36;;;;;;;4.68;1.70;;;;;;;;;;4992610;28;20038;-60
2021/04/22 07:07:02;;;;;;;4.55;1.40;;;;;;;;;;4997263;28;20053;-60
2021/04/22 07:09:32;;;;;;;5.80;1.65;;;;;;;;;;4995036;28;20071;-60
2021/04/22 07:11:57;;;;;;;3.38;1.40;;;;;;;;;;5002989;28;20061;-61
2021/04/22 07:14:23;;;;;;;5.20;1.58;;;;;;;;;;5002259;28;20405;-60
2021/04/22 07:16:48;;;;;;;3.53;1.33;;;;;;;;;;5003937;28;20480;-59
2021/04/22 07:19:14;;;;;;;4.07;1.42;;;;;;;;;;5005307;28;20046;-60
2021/04/22 07:21:39;;;;;;;3.95;1.50;;;;;;;;;;5005105;28;20039;-60
2021/04/22 07:24:05;;;;;;;4.50;1.50;;;;;;;;;;5005793;28;20030;-60
2021/04/22 07:26:30;;;;;;;4.43;1.35;;;;;;;;;;5004480;28;20046;-61
2021/04/22 07:28:56;;;;;;;4.15;1.40;;;;;;;;;;5018853;28;20034;-59
2021/04/22 07:31:21;;;;;;;5.75;1.48;;;;;;;;;;5019972;28;20060;-59
2021/04/22 07:33:47;;;;;;;3.95;1.35;;;;;;;;;;5005195;28;20043;-60
2021/04/22 07:36:13;;;;;;;3.88;1.48;;;;;;;;;;5004383;28;20049;-60
2021/04/22 07:38:38;;;;;;;4.18;1.40;;;;;;;;;;5005006;28;20113;-60
2021/04/22 07:41:04;;;;;;;4.40;1.17;;;;;;;;;;5002333;28;20045;-59
2021/04/22 07:43:29;;;;;;;3.95;1.55;;;;;;;;;;5003609;28;20038;-59
2021/04/22 07:45:55;;;;;;;4.35;1.40;;;;;;;;;;5007805;28;20051;-59
2021/04/22 07:48:20;;;;;;;3.38;1.20;;;;;;;;;;4996993;28;20038;-59
2021/04/22 07:50:46;;;;;;;4.05;1.40;;;;;;;;;;4981267;28;20038;-60
2021/04/22 07:53:11;;;;;;;5.25;1.55;;;;;;;;;;4989788;28;20042;-59
2021/04/22 07:55:40;;;;;;;4.78;1.40;;;;;;;;;;4994619;28;20034;-60
2021/04/22 07:58:06;;;;;;;5.10;1.50;;;;;;;;;;4995302;28;20038;-59
2021/04/22 08:00:32;;;;;;;6.20;1.67;;;;;;;;;;5003493;28;20046;-59
2021/04/22 08:02:57;;;;;;;3.72;1.10;;;;;;;;;;4993490;28;20065;-58
2021/04/22 08:05:25;;;;;;;3.00;1.25;;;;;;;;;;4997253;28;20034;-59
2021/04/22 08:07:50;;;;;;;3.25;1.10;;;;;;;;;;5003375;28;20125;-59
2021/04/22 08:10:19;;;;;;;4.28;1.30;;;;;;;;;;5004675;28;20034;-64
2021/04/22 08:12:44;;;;;;;3.78;1.10;;;;;;;;;;4982307;28;20173;-59
2021/04/22 08:15:10;;;;;;;3.22;1.35;;;;;;;;;;4999101;28;20705;-59
2021/04/22 08:17:37;;;;;;;5.05;1.70;;;;;;;;;;5002858;28;20042;-59
2021/04/22 08:20:06;;;;;;;4.18;1.65;;;;;;;;;;5002228;28;20035;-59
2021/04/22 08:22:32;;;;;;;3.50;1.42;;;;;;;;;;5002468;28;20045;-59
2021/04/22 08:24:58;;;;;;;5.03;1.67;;;;;;;;;;5019147;28;20038;-58
2021/04/22 08:27:23;;;;;;;3.30;1.23;;;;;;;;;;5007052;28;20050;-57
2021/04/22 08:29:49;;;;;;;3.33;1.33;;;;;;;;;;5001531;28;20048;-58
2021/04/22 08:32:14;;;;;;;4.28;1.48;;;;;;;;;;5003475;28;20109;-58
2021/04/22 08:37:28;;;;;;;4.57;1.35;;;;;;;;;;2157903;22;20653;-64
2021/04/22 08:39:53;;;;;;;4.85;1.42;;;;;;;;;;4996412;28;20046;-65
2021/04/22 08:42:20;;;;;;;3.53;1.33;;;;;;;;;;4997865;28;20037;-65
2021/04/22 08:44:45;;;;;;;3.67;1.15;;;;;;;;;;4996272;28;20038;-63
2021/04/22 08:47:11;;;;;;;3.97;1.40;;;;;;;;;;4995300;28;20050;-64
2021/04/22 08:49:39;;;;;;;3.45;1.27;;;;;;;;;;4996442;28;20034;-64
2021/04/22 08:52:08;;;;;;;3.30;1.23;;;;;;;;;;5010826;28;20071;-64
2021/04/22 08:54:33;;;;;;;4.32;1.40;;;;;;;;;;4996072;28;20065;-63
2021/04/22 08:56:59;;;;;;;3.88;1.23;;;;;;;;;;4998293;28;20037;-62
2021/04/22 08:59:24;;;;;;;4.30;1.58;;;;;;;;;;4995857;28;20113;-63
2021/04/22 09:01:50;;;;;;;3.53;1.40;;;;;;;;;;4995507;28;20038;-63
2021/04/22 09:04:15;;;;;;;4.03;1.52;;;;;;;;;;4995787;28;20023;-62
2021/04/22 09:06:41;;;;;;;3.55;1.33;;;;;;;;;;4993887;28;20043;-63
2021/04/22 09:09:07;;;;;;;3.95;1.50;;;;;;;;;;4995412;28;20478;-63
2021/04/22 09:11:40;;;;;;;6.32;1.40;;;;;;;;;;4995979;28;20596;-63
2021/04/22 09:14:10;;;;;;;2.45;1.48;;;;;;;;;;4995455;28;20045;-64
2021/04/22 09:16:36;;;;;;;4.22;1.95;;;;;;;;;;4999737;28;20489;-63
2021/04/22 09:19:07;;;;;;;2.72;1.45;;;;;;;;;;4992455;28;20043;-63
2021/04/22 09:21:34;;;;;;;4.47;1.70;;;;;;;;;;4983729;28;20035;-63
2021/04/22 09:24:13;;;;;;;3.50;1.80;;;;;;;;;;4994918;28;20057;-63
2021/04/22 09:26:46;;;;;;;5.22;1.70;;;;;;;;;;5005261;28;20058;-63
2021/04/22 09:29:16;;;;;;;5.10;1.90;;;;;;;;;;4997435;28;20520;-63
2021/04/22 09:31:42;;;;;;;3.22;1.50;;;;;;;;;;4997666;28;20041;-63
2021/04/22 09:34:16;;;;;;;6.10;1.90;;;;;;;;;;4998884;28;20390;-63
2021/04/22 09:36:47;;;;;;;4.30;1.63;;;;;;;;;;4998416;28;20035;-63
2021/04/22 09:39:15;;;;;;;3.55;1.70;;;;;;;;;;5003137;28;20141;-63
2021/04/22 09:41:40;;;;;;;3.67;1.92;;;;;;;;;;4997802;28;20031;-64
2021/04/22 09:44:11;;;;;;;3.08;1.90;;;;;;;;;;5003157;28;20390;-63
2021/04/22 09:46:47;;;;;;;4.45;2.00;;;;;;;;;;4994887;28;20517;-63
2021/04/22 09:49:18;;;;;;;3.22;1.90;;;;;;;;;;4980333;28;20482;-63
2021/04/22 09:51:45;;;;;;;4.57;1.90;;;;;;;;;;4996473;28;20085;-63
2021/04/22 09:54:15;;;;;;;4.03;2.00;;;;;;;;;;4997088;28;20039;-63
2021/04/22 09:56:55;;;;;;;3.97;2.10;;;;;;;;;;4996726;28;20841;-63
2021/04/22 09:59:21;;;;;;;4.03;2.17;;;;;;;;;;4997292;28;20030;-63
2021/04/22 10:02:07;;;;;;;2.60;1.70;;;;;;;;;;4997886;28;20053;-63
2021/04/22 10:04:38;;;;;;;5.28;2.53;;;;;;;;;;4998042;28;20220;-65
2021/04/22 10:07:05;;;;;;;3.40;2.40;;;;;;;;;;4998766;28;20098;-65
2021/04/22 10:09:34;;;;;;;3.92;2.33;;;;;;;;;;5002213;28;21078;-65
2021/04/22 10:12:00;;;;;;;4.85;2.80;;;;;;;;;;4980141;28;20034;-65
2021/04/22 10:14:33;;;;;;;6.10;3.38;;;;;;;;;;4994261;28;20034;-64
2021/04/22 10:16:59;;;;;;;5.30;3.50;;;;;;;;;;5001189;28;20058;-65
2021/04/22 10:19:25;;;;;;;5.45;3.47;;;;;;;;;;4997945;28;20038;-65
2021/04/22 10:21:50;;;;;;;6.00;3.92;;;;;;;;;;4996301;28;20398;-64
2021/04/22 10:24:16;;;;;;;5.30;3.33;;;;;;;;;;4996941;28;20498;-64
2021/04/22 10:26:42;;;;;;;6.22;4.47;;;;;;;;;;4999265;28;20552;-64
2021/04/22 10:29:08;;;;;;;6.57;5.18;;;;;;;;;;4995572;28;20500;-64
2021/04/22 10:31:35;;;;;;;8.68;5.90;;;;;;;;;;4996603;28;20036;-64
2021/04/22 10:34:01;;;;;;;10.18;6.47;;;;;;;;;;4986039;28;20037;-64
2021/04/22 10:36:26;;;;;;;9.43;6.63;;;;;;;;;;4984338;28;20121;-64
2021/04/22 10:38:52;;;;;;;8.88;7.32;;;;;;;;;;4996948;28;20030;-64
2021/04/22 10:41:21;;;;;;;10.25;7.45;;;;;;;;;;4979784;28;20078;-64
2021/04/22 10:43:47;;;;;;;10.93;8.60;;;;;;;;;;5007137;28;20035;-64
2021/04/22 10:46:12;;;;;;;12.18;10.23;;;;;;;;;;5003160;28;20074;-64
2021/04/22 10:48:38;;;;;;;12.02;10.32;;;;;;;;;;5011599;28;20048;-64
2021/04/22 10:51:04;;;;;;;13.70;11.15;;;;;;;;;;4998365;28;20045;-64
2021/04/22 10:53:30;;;;;;;14.50;11.25;;;;;;;;;;4996820;28;20045;-64
2021/04/22 10:55:55;;;;;;;13.75;11.65;;;;;;;;;;4986005;28;20026;-64
2021/04/22 10:58:23;;;;;;;13.98;12.20;;;;;;;;;;4995818;28;20741;-64
2021/04/22 11:00:54;;;;;;;14.82;12.77;;;;;;;;;;4996796;28;20518;-64
2021/04/22 11:03:31;;;;;;;15.48;13.75;;;;;;;;;;4997011;28;20517;-66
2021/04/22 11:06:05;;;;;;;16.38;14.63;;;;;;;;;;4996331;28;20215;-66
2021/04/22 11:08:32;;;;;;;17.52;15.52;;;;;;;;;;4997324;28;20073;-64
2021/04/22 11:10:57;;;;;;;19.10;15.93;;;;;;;;;;4998461;28;20066;-64
2021/04/22 11:13:30;;;;;;;19.27;17.20;;;;;;;;;;4997283;28;20656;-64
2021/04/22 11:15:56;;;;;;;19.67;17.67;;;;;;;;;;5004360;28;20081;-63
2021/04/22 11:18:37;;;;;;;20.27;18.17;;;;;;;;;;5001939;28;20541;-64
2021/04/22 11:21:18;;;;;;;20.80;18.60;;;;;;;;;;4994971;28;20042;-63
2021/04/22 11:23:44;;;;;;;22.25;19.85;;;;;;;;;;4994594;28;20038;-63
2021/04/22 11:26:27;;;;;;;22.33;19.98;;;;;;;;;;4996571;28;20513;-64
2021/04/22 11:28:54;;;;;;;25.40;21.17;;;;;;;;;;4996031;28;20035;-63
2021/04/22 11:31:22;;;;;;;24.38;21.73;;;;;;;;;;5012002;28;20174;-63
2021/04/22 11:33:48;;;;;;;26.45;22.45;;;;;;;;;;4984379;28;20049;-63
2021/04/22 11:36:23;;;;;;;26.23;23.40;;;;;;;;;;4995408;28;20041;-64
2021/04/22 11:38:56;;;;;;;29.20;26.13;;;;;;;;;;4995466;28;20045;-64
2021/04/22 11:41:23;;;;;;;25.73;22.77;;;;;;;;;;4999329;28;20120;-64
2021/04/22 11:43:59;;;;;;;28.35;25.50;;;;;;;;;;4994919;28;20550;-64
2021/04/22 11:46:49;;;;;;;30.08;26.98;;;;;;;;;;4993194;28;20113;-63
2021/04/22 11:49:28;;;;;;;32.33;29.08;;;;;;;;;;5009366;28;20039;-63
2021/04/22 11:51:55;;;;;;;32.10;28.75;;;;;;;;;;4995631;28;20037;-64
2021/04/22 11:54:25;;;;;;;32.03;28.67;;;;;;;;;;4997108;28;20043;-63
2021/04/22 11:57:00;;;;;;;33.53;30.02;;;;;;;;;;4995666;28;20161;-63
2021/04/22 11:59:26;;;;;;;34.63;31.05;;;;;;;;;;5010686;28;20053;-63
2021/04/22 12:01:58;;;;;;;33.90;30.50;;;;;;;;;;4995507;28;20133;-63
2021/04/22 12:04:43;;;;;;;;;;;;;;;;;;4995903;28;20030;-63
2021/04/22 12:07:22;;;;;;;35.17;31.55;;;;;;;;;;4996018;28;19929;-63
2021/04/22 12:09:52;;;;;;;38.38;34.58;;;;;;;;;;4994221;28;20094;-63
2021/04/22 12:12:30;;;;;;;38.13;34.17;;;;;;;;;;5011841;28;20046;-63
2021/04/22 12:14:57;;;;;;;39.53;35.33;;;;;;;;;;4995724;28;20026;-63
2021/04/22 12:17:32;;;;;;;39.83;35.83;;;;;;;;;;4994967;28;20483;-63
2021/04/22 12:20:04;;;;;;;39.80;35.90;;;;;;;;;;4986463;28;20045;-63
2021/04/22 12:22:41;;;;;;;41.25;37.30;;;;;;;;;;4995158;28;20045;-64
2021/04/22 12:25:15;;;;;;;41.75;37.53;;;;;;;;;;4993285;28;20174;-63
2021/04/22 12:27:48;;;;;;;44.28;40.00;;;;;;;;;;4996699;28;20042;-65
2021/04/22 12:30:24;;;;;;;44.65;40.25;;;;;;;;;;4979165;28;20938;-62
2021/04/22 12:32:54;;;;;;;42.85;38.72;;;;;;;;;;4996117;28;20034;-64
2021/04/22 12:35:21;;;;;;;45.83;41.40;;;;;;;;;;5003781;28;20034;-66
2021/04/22 12:37:47;;;;;;;47.08;42.38;;;;;;;;;;4995647;28;20034;-64
2021/04/22 12:40:13;;;;;;;46.22;41.72;;;;;;;;;;4994651;28;20038;-64
2021/04/22 12:42:38;;;;;;;46.53;42.03;;;;;;;;;;5000385;28;20039;-62
2021/04/22 12:45:20;;;;;;;46.63;42.10;;;;;;;;;;4976480;28;20043;-68
2021/04/22 12:47:56;;;;;;;46.05;41.55;;;;;;;;;;4985478;28;20050;-63
2021/04/22 12:50:25;;;;;;;46.80;42.25;;;;;;;;;;4994489;28;20045;-62
2021/04/22 12:53:07;;;;;;;47.35;42.65;;;;;;;;;;4995306;28;20035;-68
2021/04/22 12:55:34;;;;;;;45.92;41.42;;;;;;;;;;4994070;28;20038;-64
2021/04/22 12:58:00;;;;;;;47.67;43.00;;;;;;;;;;4984103;28;20101;-63
2021/04/22 13:00:26;;;;;;;45.63;41.03;;;;;;;;;;4995026;28;20046;-63
2021/04/22 13:02:52;;;;;;;40.47;36.63;;;;;;;;;;4991955;28;20576;-64
2021/04/22 13:05:17;;;;;;;4.90;1.92;;;;;;;;;;4999799;28;20038;-65
2021/04/22 13:07:43;;;;;;;4.50;2.00;;;;;;;;;;4994643;28;20511;-65
2021/04/22 13:10:14;;;;;;;5.18;1.73;;;;;;;;;;4961110;28;20394;-65
2021/04/22 13:12:39;;;;;;;3.72;1.73;;;;;;;;;;4991984;28;20042;-64
2021/04/22 13:15:07;;;;;;;4.30;1.90;;;;;;;;;;4996222;28;20034;-64
2021/04/22 13:17:32;;;;;;;3.83;1.88;;;;;;;;;;4995849;28;20034;-63
2021/04/22 13:19:58;;;;;;;4.88;1.75;;;;;;;;;;4995168;28;20030;-65
2021/04/22 13:22:23;;;;;;;3.15;1.83;;;;;;;;;;5001405;28;20442;-64
2021/04/22 13:24:49;;;;;;;3.58;1.65;;;;;;;;;;4994461;28;20031;-62
2021/04/22 13:27:16;;;;;;;3.30;1.70;;;;;;;;;;4995118;28;20047;-65
2021/04/22 13:29:50;;;;;;;4.43;1.88;;;;;;;;;;4992962;28;20034;-66
2021/04/22 13:32:17;;;;;;;5.28;1.80;;;;;;;;;;5012253;28;20056;-66
2021/04/22 13:34:47;;;;;;;3.72;1.90;;;;;;;;;;4995639;28;20035;-66
2021/04/22 13:37:13;;;;;;;4.15;2.00;;;;;;;;;;4994647;28;20474;-66
2021/04/22 13:39:40;;;;;;;4.25;1.80;;;;;;;;;;4994056;28;20125;-66
2021/04/22 13:42:05;;;;;;;5.15;1.95;;;;;;;;;;4994411;28;20043;-66
2021/04/22 13:44:36;;;;;;;2.78;1.77;;;;;;;;;;4993626;28;20093;-66
2021/04/22 13:47:06;;;;;;;3.75;1.73;;;;;;;;;;4978146;28;20045;-66
2021/04/22 13:49:33;;;;;;;2.80;1.60;;;;;;;;;;4995641;28;20629;-66
2021/04/22 13:52:09;;;;;;;3.20;1.77;;;;;;;;;;4976821;28;20035;-66
2021/04/22 13:54:39;;;;;;;3.38;1.70;;;;;;;;;;4994425;28;20070;-66
2021/04/22 13:57:09;;;;;;;3.20;1.70;;;;;;;;;;4976232;28;20134;-66
2021/04/22 13:59:35;;;;;;;3.72;1.48;;;;;;;;;;4992847;28;20046;-66
2021/04/22 14:02:01;;;;;;;3.95;1.63;;;;;;;;;;4993714;28;20057;-66
2021/04/22 14:04:26;;;;;;;3.13;1.48;;;;;;;;;;4994692;28;20046;-65
2021/04/22 14:06:52;;;;;;;4.20;1.55;;;;;;;;;;4992641;28;20145;-66
2021/04/22 14:09:24;;;;;;;3.45;1.52;;;;;;;;;;4992198;28;20121;-66
2021/04/22 14:11:49;;;;;;;2.75;1.42;;;;;;;;;;4995964;28;20062;-65
2021/04/22 14:14:16;;;;;;;3.40;1.67;;;;;;;;;;4997586;28;20026;-77
2021/04/22 14:16:42;;;;;;;3.72;1.55;;;;;;;;;;4997021;28;20046;-76
2021/04/22 14:19:34;;;;;;;3.13;1.58;;;;;;;;;;5004433;28;20121;-72
2021/04/22 14:22:01;;;;;;;5.47;1.92;;;;;;;;;;4995233;28;20104;-67
2021/04/22 14:24:27;;;;;;;3.17;1.60;;;;;;;;;;4997954;28;20929;-66
2021/04/22 14:26:53;;;;;;;2.67;1.65;;;;;;;;;;4995545;28;20038;-69
2021/04/22 14:29:18;;;;;;;3.40;1.50;;;;;;;;;;4999083;28;20046;-63
2021/04/22 14:31:46;;;;;;;4.43;1.90;;;;;;;;;;4997686;28;20066;-63
2021/04/22 14:34:11;;;;;;;3.22;1.52;;;;;;;;;;4996893;28;20140;-63
2021/04/22 14:36:37;;;;;;;5.20;2.05;;;;;;;;;;4996684;28;20368;-61
2021/04/22 14:39:07;;;;;;;2.20;1.50;;;;;;;;;;4996938;28;20046;-62
2021/04/22 14:41:34;;;;;;;2.85;1.40;;;;;;;;;;4996945;28;20030;-63